sensor_id;sensor_type;location;lat;lon;timestamp;pressure;altitude;pressure_sealevel;temperature;humidity
13594;BME280;6449;47.666;9.160;2023-02-28T00:00:13;97387.63;;;0.36;100.00
13594;BME280;6449;47.666;9.160;2023-02-28T00:05:09;97392.47;;;0.48;100.00
13594;BME280;6449;47.666;9.160;2023-02-28T00:10:08;97391.97;;;0.34;100.00
13594;BME280;6449;47.666;9.160;2023-02-28T00:15:03;97386.81;;;0.34;100.00
13594;BME280;6449;47.666;9.160;2023-02-28T00:19:58;97386.72;;;0.37;100.00
13594;BME280;6449;47.666;9.160;2023-02-28T00:24:56;97390.06;;;0.41;100.00
13594;BME280;6449;47.666;9.160;2023-02-28T00:29:51;97393.78;;;0.31;100.00
13594;BME280;6449;47.666;9.160;2023-02-28T00:34:46;97390.13;;;0.39;100.00
13594;BME280;6449;47.666;9.160;2023-02-28T00:39:39;97387.13;;;0.55;100.00
13594;BME280;6449;47.666;9.160;2023-02-28T00:44:33;97382.94;;;0.50;100.00
13594;BME280;6449;47.666;9.160;2023-02-28T00:49:28;97383.47;;;0.31;100.00
13594;BME280;6449;47.666;9.160;2023-02-28T00:54:22;97389.34;;;0.36;100.00
13594;BME280;6449;47.666;9.160;2023-02-28T00:59:17;97374.72;;;0.36;100.00
13594;BME280;6449;47.666;9.160;2023-02-28T01:04:11;97378.59;;;0.21;100.00
13594;BME280;6449;47.666;9.160;2023-02-28T01:09:07;97386.69;;;0.39;100.00
13594;BME280;6449;47.666;9.160;2023-02-28T01:14:01;97380.53;;;0.44;100.00
13594;BME280;6449;47.666;9.160;2023-02-28T01:18:54;97370.75;;;0.56;100.00
13594;BME280;6449;47.666;9.160;2023-02-28T01:23:49;97384.97;;;0.39;100.00
13594;BME280;6449;47.666;9.160;2023-02-28T01:28:45;97371.31;;;0.36;100.00
13594;BME280;6449;47.666;9.160;2023-02-28T01:33:39;97380.28;;;0.54;100.00
13594;BME280;6449;47.666;9.160;2023-02-28T01:38:34;97378.41;;;0.59;100.00
13594;BME280;6449;47.666;9.160;2023-02-28T01:43:30;97380.56;;;0.43;100.00
13594;BME280;6449;47.666;9.160;2023-02-28T01:48:29;97373.59;;;0.46;100.00
13594;BME280;6449;47.666;9.160;2023-02-28T01:53:30;97374.22;;;0.23;100.00
13594;BME280;6449;47.666;9.160;2023-02-28T01:58:25;97373.72;;;0.42;100.00
13594;BME280;6449;47.666;9.160;2023-02-28T02:03:20;97376.34;;;0.40;100.00
13594;BME280;6449;47.666;9.160;2023-02-28T02:08:19;97371.31;;;0.36;100.00
13594;BME280;6449;47.666;9.160;2023-02-28T02:13:52;97366.09;;;0.37;100.00
13594;BME280;6449;47.666;9.160;2023-02-28T02:18:53;97368.53;;;0.43;100.00
13594;BME280;6449;47.666;9.160;2023-02-28T02:30:21;97363.69;;;0.31;100.00
13594;BME280;6449;47.666;9.160;2023-02-28T02:35:28;97373.00;;;0.37;100.00
13594;BME280;6449;47.666;9.160;2023-02-28T02:40:27;97370.47;;;0.35;100.00
13594;BME280;6449;47.666;9.160;2023-02-28T02:45:28;97369.44;;;0.41;100.00
13594;BME280;6449;47.666;9.160;2023-02-28T02:50:36;97375.56;;;0.37;100.00
13594;BME280;6449;47.666;9.160;2023-02-28T02:55:34;97374.72;;;0.38;100.00
13594;BME280;6449;47.666;9.160;2023-02-28T03:00:35;97366.38;;;0.28;100.00
13594;BME280;6449;47.666;9.160;2023-02-28T03:05:39;97370.97;;;0.17;100.00
13594;BME280;6449;47.666;9.160;2023-02-28T03:10:38;97366.78;;;0.13;100.00
13594;BME280;6449;47.666;9.160;2023-02-28T03:15:42;97369.78;;;0.29;100.00
13594;BME280;6449;47.666;9.160;2023-02-28T03:20:55;97367.69;;;0.43;100.00
13594;BME280;6449;47.666;9.160;2023-02-28T03:25:59;97355.94;;;0.33;100.00
13594;BME280;6449;47.666;9.160;2023-02-28T03:31:01;97362.31;;;0.19;100.00
13594;BME280;6449;47.666;9.160;2023-02-28T03:36:04;97363.97;;;0.22;100.00
13594;BME280;6449;47.666;9.160;2023-02-28T03:41:03;97353.44;;;0.30;100.00
13594;BME280;6449;47.666;9.160;2023-02-28T03:46:02;97359.53;;;0.27;100.00
13594;BME280;6449;47.666;9.160;2023-02-28T03:51:01;97364.41;;;0.36;100.00
13594;BME280;6449;47.666;9.160;2023-02-28T03:55:59;97369.06;;;0.23;100.00
13594;BME280;6449;47.666;9.160;2023-02-28T04:01:01;97365.09;;;0.12;100.00
13594;BME280;6449;47.666;9.160;2023-02-28T04:06:02;97372.84;;;0.12;100.00
13594;BME280;6449;47.666;9.160;2023-02-28T04:11:01;97379.69;;;0.44;100.00
13594;BME280;6449;47.666;9.160;2023-02-28T04:15:56;97378.66;;;0.49;100.00
13594;BME280;6449;47.666;9.160;2023-02-28T04:20:49;97385.59;;;0.47;100.00
13594;BME280;6449;47.666;9.160;2023-02-28T04:25:44;97383.66;;;0.56;100.00
13594;BME280;6449;47.666;9.160;2023-02-28T04:30:38;97377.41;;;0.33;100.00
13594;BME280;6449;47.666;9.160;2023-02-28T04:35:32;97387.38;;;0.45;100.00
13594;BME280;6449;47.666;9.160;2023-02-28T04:40:25;97375.66;;;0.34;100.00
13594;BME280;6449;47.666;9.160;2023-02-28T04:45:20;97380.41;;;0.18;100.00
13594;BME280;6449;47.666;9.160;2023-02-28T04:50:14;97372.56;;;0.21;100.00
13594;BME280;6449;47.666;9.160;2023-02-28T04:55:08;97381.06;;;0.24;100.00
13594;BME280;6449;47.666;9.160;2023-02-28T05:00:07;97400.28;;;0.13;100.00
13594;BME280;6449;47.666;9.160;2023-02-28T05:05:05;97395.13;;;0.13;100.00
13594;BME280;6449;47.666;9.160;2023-02-28T05:09:59;97402.47;;;0.26;100.00
13594;BME280;6449;47.666;9.160;2023-02-28T05:14:52;97404.28;;;0.24;100.00
13594;BME280;6449;47.666;9.160;2023-02-28T05:19:45;97403.66;;;0.15;100.00
13594;BME280;6449;47.666;9.160;2023-02-28T05:24:40;97407.28;;;0.08;100.00
13594;BME280;6449;47.666;9.160;2023-02-28T05:29:34;97412.94;;;0.22;100.00
13594;BME280;6449;47.666;9.160;2023-02-28T05:34:36;97411.38;;;0.16;100.00
13594;BME280;6449;47.666;9.160;2023-02-28T05:39:29;97413.28;;;0.08;100.00
13594;BME280;6449;47.666;9.160;2023-02-28T05:44:24;97418.97;;;0.21;100.00
13594;BME280;6449;47.666;9.160;2023-02-28T05:49:17;97424.28;;;0.15;100.00
13594;BME280;6449;47.666;9.160;2023-02-28T05:54:15;97422.59;;;0.14;100.00
13594;BME280;6449;47.666;9.160;2023-02-28T05:59:08;97432.44;;;0.32;100.00
13594;BME280;6449;47.666;9.160;2023-02-28T06:04:06;97429.88;;;0.32;100.00
13594;BME280;6449;47.666;9.160;2023-02-28T06:09:04;97437.44;;;0.38;100.00
13594;BME280;6449;47.666;9.160;2023-02-28T06:13:59;97440.00;;;0.38;100.00
13594;BME280;6449;47.666;9.160;2023-02-28T06:18:53;97443.66;;;0.30;100.00
13594;BME280;6449;47.666;9.160;2023-02-28T06:23:49;97450.16;;;0.12;100.00
13594;BME280;6449;47.666;9.160;2023-02-28T06:28:42;97452.97;;;0.35;100.00
13594;BME280;6449;47.666;9.160;2023-02-28T06:33:37;97459.81;;;0.36;100.00
13594;BME280;6449;47.666;9.160;2023-02-28T06:38:30;97471.03;;;0.35;100.00
13594;BME280;6449;47.666;9.160;2023-02-28T06:43:29;97477.25;;;0.28;100.00
13594;BME280;6449;47.666;9.160;2023-02-28T06:48:22;97480.94;;;0.18;100.00
13594;BME280;6449;47.666;9.160;2023-02-28T06:53:16;97476.28;;;0.32;100.00
13594;BME280;6449;47.666;9.160;2023-02-28T06:58:10;97475.38;;;0.33;100.00
13594;BME280;6449;47.666;9.160;2023-02-28T07:03:09;97483.50;;;0.18;100.00
13594;BME280;6449;47.666;9.160;2023-02-28T07:08:03;97493.44;;;0.32;100.00
13594;BME280;6449;47.666;9.160;2023-02-28T07:12:57;97504.13;;;0.18;100.00
13594;BME280;6449;47.666;9.160;2023-02-28T07:17:51;97502.97;;;0.30;100.00
13594;BME280;6449;47.666;9.160;2023-02-28T07:22:46;97503.66;;;0.36;100.00
13594;BME280;6449;47.666;9.160;2023-02-28T07:27:47;97503.75;;;0.33;100.00
13594;BME280;6449;47.666;9.160;2023-02-28T07:32:40;97511.50;;;0.33;100.00
13594;BME280;6449;47.666;9.160;2023-02-28T07:37:36;97515.13;;;0.59;100.00
13594;BME280;6449;47.666;9.160;2023-02-28T07:42:30;97519.84;;;0.43;100.00
13594;BME280;6449;47.666;9.160;2023-02-28T07:47:24;97522.94;;;0.56;100.00
13594;BME280;6449;47.666;9.160;2023-02-28T07:52:18;97521.97;;;0.27;100.00
13594;BME280;6449;47.666;9.160;2023-02-28T07:57:11;97520.53;;;0.49;100.00
13594;BME280;6449;47.666;9.160;2023-02-28T08:02:06;97516.72;;;0.30;100.00
13594;BME280;6449;47.666;9.160;2023-02-28T08:06:59;97518.16;;;0.40;100.00
13594;BME280;6449;47.666;9.160;2023-02-28T08:11:52;97527.75;;;0.35;100.00
13594;BME280;6449;47.666;9.160;2023-02-28T08:16:46;97528.72;;;0.31;100.00
13594;BME280;6449;47.666;9.160;2023-02-28T08:21:40;97530.66;;;0.23;100.00
13594;BME280;6449;47.666;9.160;2023-02-28T08:26:34;97535.44;;;0.38;100.00
13594;BME280;6449;47.666;9.160;2023-02-28T08:31:27;97532.03;;;0.36;100.00
13594;BME280;6449;47.666;9.160;2023-02-28T08:36:21;97528.91;;;0.58;100.00
13594;BME280;6449;47.666;9.160;2023-02-28T08:41:16;97534.44;;;0.44;100.00
13594;BME280;6449;47.666;9.160;2023-02-28T08:46:12;97536.75;;;0.53;100.00
13594;BME280;6449;47.666;9.160;2023-02-28T08:51:08;97539.03;;;0.65;100.00
13594;BME280;6449;47.666;9.160;2023-02-28T08:56:05;97543.06;;;0.75;100.00
13594;BME280;6449;47.666;9.160;2023-02-28T09:01:00;97548.66;;;0.91;100.00
13594;BME280;6449;47.666;9.160;2023-02-28T09:05:59;97558.66;;;0.71;100.00
13594;BME280;6449;47.666;9.160;2023-02-28T09:10:53;97561.75;;;0.51;100.00
13594;BME280;6449;47.666;9.160;2023-02-28T09:15:49;97558.81;;;0.31;100.00
13594;BME280;6449;47.666;9.160;2023-02-28T09:20:45;97554.06;;;0.49;100.00
13594;BME280;6449;47.666;9.160;2023-02-28T09:25:45;97554.00;;;0.51;100.00
13594;BME280;6449;47.666;9.160;2023-02-28T09:30:39;97546.09;;;0.57;100.00
13594;BME280;6449;47.666;9.160;2023-02-28T09:35:32;97554.63;;;0.61;100.00
13594;BME280;6449;47.666;9.160;2023-02-28T09:40:27;97552.44;;;0.45;100.00
13594;BME280;6449;47.666;9.160;2023-02-28T09:45:26;97562.53;;;0.55;100.00
13594;BME280;6449;47.666;9.160;2023-02-28T09:50:30;97567.44;;;0.64;100.00
13594;BME280;6449;47.666;9.160;2023-02-28T09:55:32;97565.63;;;0.67;100.00
13594;BME280;6449;47.666;9.160;2023-02-28T10:00:40;97567.88;;;0.81;100.00
13594;BME280;6449;47.666;9.160;2023-02-28T10:05:38;97583.81;;;0.95;100.00
13594;BME280;6449;47.666;9.160;2023-02-28T10:10:40;97578.66;;;0.95;100.00
13594;BME280;6449;47.666;9.160;2023-02-28T10:15:35;97576.22;;;0.91;100.00
13594;BME280;6449;47.666;9.160;2023-02-28T10:20:33;97588.84;;;1.00;100.00
13594;BME280;6449;47.666;9.160;2023-02-28T10:25:29;97592.28;;;1.00;100.00
13594;BME280;6449;47.666;9.160;2023-02-28T10:30:24;97585.75;;;1.20;100.00
13594;BME280;6449;47.666;9.160;2023-02-28T10:35:21;97590.41;;;1.05;100.00
13594;BME280;6449;47.666;9.160;2023-02-28T10:40:30;97595.16;;;0.90;100.00
13594;BME280;6449;47.666;9.160;2023-02-28T10:45:27;97591.69;;;1.22;100.00
13594;BME280;6449;47.666;9.160;2023-02-28T10:50:37;97600.56;;;1.44;100.00
13594;BME280;6449;47.666;9.160;2023-02-28T10:55:32;97589.34;;;1.14;100.00
13594;BME280;6449;47.666;9.160;2023-02-28T11:00:34;97594.38;;;1.50;100.00
13594;BME280;6449;47.666;9.160;2023-02-28T11:05:32;97594.56;;;1.42;100.00
13594;BME280;6449;47.666;9.160;2023-02-28T11:10:29;97608.31;;;1.44;100.00
13594;BME280;6449;47.666;9.160;2023-02-28T11:15:29;97599.56;;;0.86;100.00
13594;BME280;6449;47.666;9.160;2023-02-28T11:20:26;97606.63;;;1.11;100.00
13594;BME280;6449;47.666;9.160;2023-02-28T11:25:25;97603.44;;;1.34;100.00
13594;BME280;6449;47.666;9.160;2023-02-28T11:30:42;97592.91;;;1.41;100.00
13594;BME280;6449;47.666;9.160;2023-02-28T11:35:39;97587.94;;;1.34;100.00
13594;BME280;6449;47.666;9.160;2023-02-28T11:40:43;97592.16;;;1.07;100.00
13594;BME280;6449;47.666;9.160;2023-02-28T11:45:58;97591.50;;;1.29;100.00
13594;BME280;6449;47.666;9.160;2023-02-28T11:51:10;97589.84;;;1.27;100.00
13594;BME280;6449;47.666;9.160;2023-02-28T11:56:15;97590.31;;;1.10;100.00
13594;BME280;6449;47.666;9.160;2023-02-28T12:01:41;97600.34;;;1.21;100.00
13594;BME280;6449;47.666;9.160;2023-02-28T12:06:46;97586.75;;;1.14;100.00
13594;BME280;6449;47.666;9.160;2023-02-28T12:11:51;97588.38;;;1.48;100.00
13594;BME280;6449;47.666;9.160;2023-02-28T12:17:03;97584.16;;;1.45;100.00
13594;BME280;6449;47.666;9.160;2023-02-28T12:22:37;97598.84;;;1.43;100.00
13594;BME280;6449;47.666;9.160;2023-02-28T12:27:40;97595.41;;;1.44;100.00
13594;BME280;6449;47.666;9.160;2023-02-28T12:32:39;97581.59;;;1.44;100.00
13594;BME280;6449;47.666;9.160;2023-02-28T12:37:39;97583.03;;;1.55;100.00
13594;BME280;6449;47.666;9.160;2023-02-28T12:42:41;97572.41;;;1.65;100.00
13594;BME280;6449;47.666;9.160;2023-02-28T12:47:40;97581.16;;;1.61;100.00
13594;BME280;6449;47.666;9.160;2023-02-28T12:52:49;97568.13;;;1.64;100.00
13594;BME280;6449;47.666;9.160;2023-02-28T12:57:55;97569.72;;;1.68;100.00
13594;BME280;6449;47.666;9.160;2023-02-28T13:09:02;97572.44;;;1.63;100.00
13594;BME280;6449;47.666;9.160;2023-02-28T13:14:00;97571.84;;;1.55;100.00
13594;BME280;6449;47.666;9.160;2023-02-28T13:19:10;97562.25;;;1.58;100.00
13594;BME280;6449;47.666;9.160;2023-02-28T13:24:08;97566.50;;;1.60;100.00
13594;BME280;6449;47.666;9.160;2023-02-28T13:29:21;97562.78;;;1.70;100.00
13594;BME280;6449;47.666;9.160;2023-02-28T13:34:16;97566.88;;;1.77;100.00
13594;BME280;6449;47.666;9.160;2023-02-28T13:39:49;97562.41;;;1.82;100.00
13594;BME280;6449;47.666;9.160;2023-02-28T13:45:22;97572.38;;;1.66;100.00
13594;BME280;6449;47.666;9.160;2023-02-28T13:50:24;97580.00;;;1.71;100.00
13594;BME280;6449;47.666;9.160;2023-02-28T13:55:34;97575.22;;;1.87;100.00
13594;BME280;6449;47.666;9.160;2023-02-28T14:00:48;97577.22;;;1.77;100.00
13594;BME280;6449;47.666;9.160;2023-02-28T14:06:08;97574.97;;;1.94;100.00
13594;BME280;6449;47.666;9.160;2023-02-28T14:11:15;97578.19;;;2.01;100.00
13594;BME280;6449;47.666;9.160;2023-02-28T14:16:21;97589.69;;;1.92;100.00
13594;BME280;6449;47.666;9.160;2023-02-28T14:21:22;97571.41;;;1.98;100.00
13594;BME280;6449;47.666;9.160;2023-02-28T14:26:37;97582.72;;;1.94;100.00
13594;BME280;6449;47.666;9.160;2023-02-28T14:31:46;97579.50;;;1.86;100.00
13594;BME280;6449;47.666;9.160;2023-02-28T14:36:45;97580.50;;;1.82;100.00
13594;BME280;6449;47.666;9.160;2023-02-28T14:41:42;97582.22;;;1.83;100.00
13594;BME280;6449;47.666;9.160;2023-02-28T14:46:39;97578.91;;;1.78;100.00
13594;BME280;6449;47.666;9.160;2023-02-28T14:51:33;97581.31;;;1.84;100.00
13594;BME280;6449;47.666;9.160;2023-02-28T14:56:35;97588.34;;;1.79;100.00
13594;BME280;6449;47.666;9.160;2023-02-28T15:01:31;97602.03;;;1.82;100.00
13594;BME280;6449;47.666;9.160;2023-02-28T15:06:25;97593.66;;;1.74;100.00
13594;BME280;6449;47.666;9.160;2023-02-28T15:11:21;97600.47;;;1.77;100.00
13594;BME280;6449;47.666;9.160;2023-02-28T15:16:20;97603.97;;;1.76;100.00
13594;BME280;6449;47.666;9.160;2023-02-28T15:21:19;97607.41;;;1.75;100.00
13594;BME280;6449;47.666;9.160;2023-02-28T15:26:17;97607.72;;;1.64;100.00
13594;BME280;6449;47.666;9.160;2023-02-28T15:31:22;97611.09;;;1.68;100.00
13594;BME280;6449;47.666;9.160;2023-02-28T15:36:19;97615.16;;;1.76;100.00
13594;BME280;6449;47.666;9.160;2023-02-28T15:41:25;97606.38;;;1.82;100.00
13594;BME280;6449;47.666;9.160;2023-02-28T15:46:19;97609.81;;;1.81;100.00
13594;BME280;6449;47.666;9.160;2023-02-28T15:51:20;97606.00;;;1.65;100.00
13594;BME280;6449;47.666;9.160;2023-02-28T15:56:24;97607.06;;;1.87;100.00
13594;BME280;6449;47.666;9.160;2023-02-28T16:01:24;97606.06;;;1.91;100.00
13594;BME280;6449;47.666;9.160;2023-02-28T16:06:41;97598.69;;;1.79;100.00
13594;BME280;6449;47.666;9.160;2023-02-28T16:11:39;97605.06;;;1.67;100.00
13594;BME280;6449;47.666;9.160;2023-02-28T16:16:34;97602.25;;;1.75;100.00
13594;BME280;6449;47.666;9.160;2023-02-28T16:21:31;97609.22;;;1.73;100.00
13594;BME280;6449;47.666;9.160;2023-02-28T16:26:26;97616.19;;;1.71;100.00
13594;BME280;6449;47.666;9.160;2023-02-28T16:31:20;97612.94;;;1.63;100.00
13594;BME280;6449;47.666;9.160;2023-02-28T16:36:17;97618.84;;;1.68;100.00
13594;BME280;6449;47.666;9.160;2023-02-28T16:41:15;97619.09;;;1.58;100.00
13594;BME280;6449;47.666;9.160;2023-02-28T16:46:12;97634.72;;;1.54;100.00
13594;BME280;6449;47.666;9.160;2023-02-28T16:51:05;97626.72;;;1.63;100.00
13594;BME280;6449;47.666;9.160;2023-02-28T16:56:00;97628.59;;;1.58;100.00
13594;BME280;6449;47.666;9.160;2023-02-28T17:00:54;97632.13;;;1.54;100.00
13594;BME280;6449;47.666;9.160;2023-02-28T17:05:48;97636.97;;;1.35;100.00
13594;BME280;6449;47.666;9.160;2023-02-28T17:10:42;97632.66;;;1.36;100.00
13594;BME280;6449;47.666;9.160;2023-02-28T17:15:37;97636.69;;;1.46;100.00
13594;BME280;6449;47.666;9.160;2023-02-28T17:20:31;97637.88;;;1.34;100.00
13594;BME280;6449;47.666;9.160;2023-02-28T17:25:26;97644.38;;;1.47;100.00
13594;BME280;6449;47.666;9.160;2023-02-28T17:30:22;97646.66;;;1.27;100.00
13594;BME280;6449;47.666;9.160;2023-02-28T17:35:16;97645.78;;;1.28;100.00
13594;BME280;6449;47.666;9.160;2023-02-28T17:40:15;97649.63;;;1.13;100.00
13594;BME280;6449;47.666;9.160;2023-02-28T17:45:11;97660.63;;;1.20;100.00
13594;BME280;6449;47.666;9.160;2023-02-28T17:50:06;97660.41;;;1.27;100.00
13594;BME280;6449;47.666;9.160;2023-02-28T17:54:59;97658.81;;;1.23;100.00
13594;BME280;6449;47.666;9.160;2023-02-28T17:59:53;97653.78;;;1.19;100.00
13594;BME280;6449;47.666;9.160;2023-02-28T18:04:47;97655.28;;;1.26;100.00
13594;BME280;6449;47.666;9.160;2023-02-28T18:09:41;97663.09;;;1.24;100.00
13594;BME280;6449;47.666;9.160;2023-02-28T18:14:34;97655.28;;;1.26;100.00
13594;BME280;6449;47.666;9.160;2023-02-28T18:26:01;97652.19;;;1.13;100.00
13594;BME280;6449;47.666;9.160;2023-02-28T18:30:54;97653.13;;;1.11;100.00
13594;BME280;6449;47.666;9.160;2023-02-28T18:35:55;97648.50;;;1.22;100.00
13594;BME280;6449;47.666;9.160;2023-02-28T18:40:52;97649.91;;;1.01;100.00
13594;BME280;6449;47.666;9.160;2023-02-28T18:45:47;97645.31;;;1.14;100.00
13594;BME280;6449;47.666;9.160;2023-02-28T18:50:40;97644.47;;;1.13;100.00
13594;BME280;6449;47.666;9.160;2023-02-28T18:55:34;97645.31;;;1.14;100.00
13594;BME280;6449;47.666;9.160;2023-02-28T19:00:27;97644.47;;;1.12;100.00
13594;BME280;6449;47.666;9.160;2023-02-28T19:05:22;97650.38;;;1.17;100.00
13594;BME280;6449;47.666;9.160;2023-02-28T19:10:16;97642.09;;;1.04;100.00
13594;BME280;6449;47.666;9.160;2023-02-28T19:15:10;97652.22;;;1.12;100.00
13594;BME280;6449;47.666;9.160;2023-02-28T19:20:05;97649.72;;;1.09;100.00
13594;BME280;6449;47.666;9.160;2023-02-28T19:25:00;97641.88;;;1.13;100.00
13594;BME280;6449;47.666;9.160;2023-02-28T19:29:54;97642.91;;;1.06;100.00
13594;BME280;6449;47.666;9.160;2023-02-28T19:34:52;97637.84;;;1.03;100.00
13594;BME280;6449;47.666;9.160;2023-02-28T19:39:47;97643.03;;;1.01;100.00
13594;BME280;6449;47.666;9.160;2023-02-28T19:44:45;97644.00;;;0.97;100.00
13594;BME280;6449;47.666;9.160;2023-02-28T19:49:42;97631.09;;;0.97;100.00
13594;BME280;6449;47.666;9.160;2023-02-28T19:54:57;97637.16;;;0.96;100.00
13594;BME280;6449;47.666;9.160;2023-02-28T19:59:54;97617.41;;;0.94;100.00
13594;BME280;6449;47.666;9.160;2023-02-28T20:04:52;97615.44;;;1.03;100.00
13594;BME280;6449;47.666;9.160;2023-02-28T20:09:51;97616.50;;;0.96;100.00
13594;BME280;6449;47.666;9.160;2023-02-28T20:14:46;97610.88;;;1.13;100.00
13594;BME280;6449;47.666;9.160;2023-02-28T20:19:45;97617.97;;;1.07;100.00
13594;BME280;6449;47.666;9.160;2023-02-28T20:24:38;97616.41;;;0.99;100.00
13594;BME280;6449;47.666;9.160;2023-02-28T20:29:33;97613.03;;;0.97;100.00
13594;BME280;6449;47.666;9.160;2023-02-28T20:34:27;97623.34;;;0.97;100.00
13594;BME280;6449;47.666;9.160;2023-02-28T20:39:22;97621.66;;;0.96;100.00
13594;BME280;6449;47.666;9.160;2023-02-28T20:44:16;97615.13;;;0.83;100.00
13594;BME280;6449;47.666;9.160;2023-02-28T20:49:10;97615.84;;;0.88;100.00
13594;BME280;6449;47.666;9.160;2023-02-28T20:54:04;97615.03;;;0.86;100.00
13594;BME280;6449;47.666;9.160;2023-02-28T20:58:59;97619.88;;;0.98;100.00
13594;BME280;6449;47.666;9.160;2023-02-28T21:03:54;97619.19;;;0.92;100.00
13594;BME280;6449;47.666;9.160;2023-02-28T21:08:49;97619.88;;;0.98;100.00
13594;BME280;6449;47.666;9.160;2023-02-28T21:13:44;97614.09;;;1.21;100.00
13594;BME280;6449;47.666;9.160;2023-02-28T21:18:40;97608.75;;;1.27;100.00
13594;BME280;6449;47.666;9.160;2023-02-28T21:23:33;97604.47;;;1.28;100.00
13594;BME280;6449;47.666;9.160;2023-02-28T21:28:27;97596.00;;;1.23;100.00
13594;BME280;6449;47.666;9.160;2023-02-28T21:33:20;97596.66;;;1.29;100.00
13594;BME280;6449;47.666;9.160;2023-02-28T21:38:15;97593.50;;;1.20;100.00
13594;BME280;6449;47.666;9.160;2023-02-28T21:43:09;97581.84;;;1.05;100.00
13594;BME280;6449;47.666;9.160;2023-02-28T21:48:02;97584.09;;;1.17;100.00
13594;BME280;6449;47.666;9.160;2023-02-28T21:52:55;97583.94;;;1.23;100.00
13594;BME280;6449;47.666;9.160;2023-02-28T21:57:51;97571.63;;;1.31;100.00
13594;BME280;6449;47.666;9.160;2023-02-28T22:02:44;97577.81;;;1.26;100.00
13594;BME280;6449;47.666;9.160;2023-02-28T22:07:38;97578.13;;;1.15;100.00
13594;BME280;6449;47.666;9.160;2023-02-28T22:12:33;97576.22;;;1.22;100.00
13594;BME280;6449;47.666;9.160;2023-02-28T22:17:27;97575.13;;;1.30;100.00
13594;BME280;6449;47.666;9.160;2023-02-28T22:22:21;97576.97;;;1.25;100.00
13594;BME280;6449;47.666;9.160;2023-02-28T22:27:14;97582.81;;;1.32;100.00
13594;BME280;6449;47.666;9.160;2023-02-28T22:32:08;97591.28;;;1.37;100.00
13594;BME280;6449;47.666;9.160;2023-02-28T22:37:03;97590.63;;;1.30;100.00
13594;BME280;6449;47.666;9.160;2023-02-28T22:41:58;97589.84;;;1.27;100.00
13594;BME280;6449;47.666;9.160;2023-02-28T22:46:53;97581.13;;;1.31;100.00
13594;BME280;6449;47.666;9.160;2023-02-28T22:51:46;97575.72;;;1.40;100.00
13594;BME280;6449;47.666;9.160;2023-02-28T22:56:41;97570.63;;;1.37;100.00
13594;BME280;6449;47.666;9.160;2023-02-28T23:01:34;97570.34;;;1.46;100.00
13594;BME280;6449;47.666;9.160;2023-02-28T23:06:30;97573.84;;;1.45;100.00
13594;BME280;6449;47.666;9.160;2023-02-28T23:11:29;97567.81;;;1.45;100.00
13594;BME280;6449;47.666;9.160;2023-02-28T23:16:27;97561.19;;;1.36;100.00
13594;BME280;6449;47.666;9.160;2023-02-28T23:21:22;97566.81;;;1.49;100.00
13594;BME280;6449;47.666;9.160;2023-02-28T23:26:15;97562.75;;;1.42;100.00
13594;BME280;6449;47.666;9.160;2023-02-28T23:31:09;97569.41;;;1.49;100.00
13594;BME280;6449;47.666;9.160;2023-02-28T23:36:13;97567.34;;;1.62;100.00
13594;BME280;6449;47.666;9.160;2023-02-28T23:41:08;97564.81;;;1.58;100.00
13594;BME280;6449;47.666;9.160;2023-02-28T23:46:02;97553.75;;;1.55;100.00
13594;BME280;6449;47.666;9.160;2023-02-28T23:51:00;97554.78;;;1.49;100.00
13594;BME280;6449;47.666;9.160;2023-02-28T23:55:55;97555.69;;;1.47;100.00
